Hauptseite
METAR-TAF:

METAR-TAF

Flughäfen :

Havanna, Kuba

Aeropuerto Internacional José Martí

Breite: 22-59N, Länge: 082-24W, Höhe: 59 m

Beobachtung

Neuester Wetterbericht von vor 55 Minuten, um 22:55 UTC
Wind 15 kt aus Ost/Nordost, Böen bis zu 25 kt
Temperatur 25°C
Luftfeuchtigkeit 57%
Luftdruck 1019 hPa
Sichtweite: 9000 m
Leicht bewölkt in der Höhe von 3000 ft

METAR: MUHA 242255Z 07015G25KT 9000 FEW030 25/16 Q1019

Zeit: 19:50 (23:50 UTC)

Prognose

Neuester Wetterbericht von vor 50 Minuten, um 23:00 UTC
Gültige Prognose vom 25 um 00 UTC bis 25 um 24 UTC
Wind 14 kt aus Ost
Sichtweite: 9000 m
Aufgelockert bewölkt in der Höhe von 3000 ft
Übergehend zu
vom 25 um 06 UTC bis 25 um 09 UTC
Wind 5 kt aus Ost
Leicht bewölkt in der Höhe von 3000 ft
Übergehend zu
vom 25 um 13 UTC bis 25 um 15 UTC
Wind 10 kt aus Ost

TAF: MUHA 242300Z 2500/2524 08014KT 9000 SCT030 BECMG 2506/2509 09005KT FEW030 BECMG 2513/2515 09010KT

Wetterbeobachtungen und Prognosen von mehr als 4000 Flughäfen (METAR und TAF Bericht).

Die verfügbaren Stationen werden durch gelbe und rote Markierungen auf der Karte dargestellt.

Führen Sie die Maus auf sie, um den Namen der Station zu sehen.

Darauf klicken, um die Beobachtung von Wetterbeobachtungen und Prognosen zu sehen.

Um die Karte zu ändern : klicken Sie auf den grünen Tasten mit einem schwarzen Kreuz Zum Vergrößern, auf den grünen Button mit einem Gedankenstrich zu verkleinern, oder auf die grünen Pfeile für benachbarte Karten.


METAR-TAF: